Ballesteros, Argentina
Current Conditions -  °F | °C
As of 12:00 PM on Saturday 20 Dec 2014 (Local Time) from SAOC Reporting Station
Broken Clouds Broken Clouds  
Wind Chill: 22°   Ceiling: 2500
Heat Index: 22°   Visibility: 6mi
Dew Point: 12°   Wind: 17mph
Humidity: 53%   Direction: 160°SSE
Pressure: 29.68"   Gusts: NA
Location:  32.55°S, 62.98°W
Report Text: SAOC 201500Z 16015KT 9999 FEW020 BKN02522/12 Q1005
Loading
Personal Weather Stations






























Interactive Weather Map New forecast layout! Learn more

10-Day Weather Forecast

Advertisements
Track Severe Weather on mobile